APRS [IN63TI], 0 Stunde(n), DL3EL [06:55:22, 0s].
LETN 43.20.05N 006.22.69WIN63TI 2.244km 187°S04:30:07ZAerodromo de La Curiscada (Tineo): LEAS 210400Z 23004KT 9999 BKN060 15/12 Q1006 NOSIG=
ED1YBD 43.09.56N 006.29.74WIN63SD 23.766km 204°SSW04:53:19Z IN63SD(3ED1YBD-3)
EC1KV 43.34.01N 006.16.01WIN63UN 25.200km 20°NNE04:38:55ZALBUERNE(3EC1KV-1)
ED1YBE 43.29.09N 006.38.69WIN63QL 26.197km 304°NW04:54:58Z IN63QL UIDIGI 1.9B3(3ED1YBE-3)
EA1CZ 43.05.15N 006.33.28WIN63RC 33.181km 206°SSW04:52:10ZWIDE3-3 ESAS3-3(3EA1CZ-2)
ED1ZAY 43.29.47N 005.56.54WIN73AL 38.106km 66°ENE04:35:59ZRD625 438.3000/430.7000 CC1
EA1DHE 43.33.98N 005.58.57WIN73AN 39.912km 54°NE04:35:17ZMMDVM DVS 434.3500/434.3500 CC1
ED1ZAU 43.23.04N 005.52.75WIN73BJ 40.196km 85°E04:35:45ZRD625 438.5000/430.9000 CC1
EA1HJA 43.21.47N 005.52.09WIN73BI 40.960km 89°E04:50:46ZEA1HJA@URE.ES
EA1JAY 43.21.54N 005.51.34WIN73BI 41.971km 89°E04:00:14Z434.525MHz Nodo TETRA DMO(3EA1JAY-4)
EA1IZV 43.33.25N 005.55.92WIN73AN 42.090km 58°ENE04:30:06ZEn proceso...
33D00 43.21.63N 005.51.13WIN73BI 42.269km 89°E04:02:00Z33-D-00 Protección Civil REMER / Delegación del Gobierno en Asturias
EA1L 43.20.37N 005.51.13WIN73BI 42.302km 92°E04:50:05Zea1l@ure.es V=11.7V,T=??.?C
Wind 338°/002kn, Böen bis 003kn, Temp 17.78c, Regen 0.0mm, letzte 24h 3.3mm, seit 0h 3.3mm, Baro 1004.5h, Hum: 0%(2EA1L-13)
EA1AHA 43.32.72N 005.54.38WIN73BN 43.396km 60°ENE04:51:18ZWind 270°/003kn, Böen bis 004kn, Temp 16.11c, Regen 0.0mm, letzte 24h 4.8mm, seit 0h 4.8mm, Baro 1007.7h, Hum: 77%(3EA1AHA-13)
LEHU 43.22.63N 005.49.57WIN73CJ 44.419km 87°E04:30:07ZHelipuerto del HUCA: LEAS 210400Z 23004KT 9999 BKN060 15/12 Q1006 NOSIG=
LEGM 43.26.15N 005.49.84WIN73CK 44.905km 78°ENE04:30:07ZHelipuerto de La Morgal: LEAS 210400Z 23004KT 9999 BKN060 15/12 Q1006 NOSIG=
LEMR 43.25.83N 005.49.60WIN73CK 45.091km 79°E04:30:08ZAerodromo de la Morgal: LEAS 210400Z 23004KT 9999 BKN060 15/12 Q1006 NOSIG=
EA1IN 43.25.16N 005.47.43WIN73CK 47.764km 81°E04:34:50ZMMDVM MMDVM HS Hat 434.7000/434.7000 CC1
EA1RCG 43.09.45N 005.49.78WIN73CD 49.254km 116°ESE04:34:14ZGRUPO RADIO GALENA (GRG) 433.4500/433.4500 CC1
EA1IPU 43.25.79N 005.46.19WIN73CK 49.599km 80°E04:33:16ZMMDVM MMDVM HS Hat 439.8000/439.8000 CC1

aprs.pl 5.0.011w DL3EL © 2006-2021 [484610]